Menahga, MN

10:41 AM CDT on April 28, 2015 (GMT -0500)
Park Rapids Municipal | | Change Station
CLOSE
Current Station
Airport
Location: Park Rapids,
Elevation: 1440 ft
Nearby Weather Stations

Elev 1440 ft 46.90 °N, 95.07 °W | Updated 48 minutes ago

Overcast
Overcast
46 °F
Feels Like 41 °F
N
9
Wind Variable Wind from North

Today
High -- | Low -- °F
--% Chance of Precip.
Yesterday
High -- | Low -- °F
Precip. -- in
6:10 AM 8:25 PM
Waxing Gibbous, 74% visible
Pressure 30.26 in
Visibility 5.0 miles
Clouds Overcast 600 ft
Windchill 41 °F
Dew Point 43 °F
Humidity 89%
Rainfall 0.03 in
Snow Depth Not available.
UV 1 out of 12
Pollen 9.80 out of 12
Air Quality Not available.
Flu Activity Local Activity
METAR KPKD 281453Z AUTO 35008KT 5SM -RA BR OVC006 08/06 A3023 RMK AO2 RAB36 CIG 004V009 SLP246 P0000 60000 T00780061 53007

More Conditions Fewer Conditions

Pressure 30.26 in
Visibility 5.0 miles
Clouds Overcast 600 ft
Windchill 41 °F
Dew Point 43 °F
Humidity 89%
Rainfall 0.03 in
Snow Depth Not available.
UV 1 out of 12
Pollen 9.80 out of 12
Air Quality Not available.
Flu Activity Local Activity
METAR KPKD 281453Z AUTO 35008KT 5SM -RA BR OVC006 08/06 A3023 RMK AO2 RAB36 CIG 004V009 SLP246 P0000 60000 T00780061 53007

More Conditions Fewer Conditions

10-Day Weather Forecast

Almanac

Astronomy

Apr. 28, 2015 Rise Set
Actual Time
Civil Twilight
Nautical Twilight
Astronomical Twilight
Moon
Length of Visible Light
Length of Day
Tomorrow will be .
, % of the Moon is Illuminated

Today's Extremes

State Highs State Lows

Community

WunderPhotos

Upload Photos

1,817,680 photos uploaded!

WunderBlogs® & News

Nearby

Air Quality

  Air Quality AQ Index Pollutant
Not available.

Snow Depth

Station Depth Elevation

Earthquake Activity

City Distance Mag. Time & Date
Minimum magnitude displayed is 2.5.

Coastal Water Temperatures

Place Temperature

Stations

Nearby Weather Stations

Station Location Temp. Windchill Dew Point Humidity Wind Precip. Elev Updated Type